Data Viewer
| City | State | Eastern Time | Source | Temp | DewPt | RH | BP | 5 Min Precip | Wind Speed | Wind Dir | 5 Min Wind Max | 5 Min Wind Max Dir |
|---|---|---|---|---|---|---|---|---|---|---|---|---|
| Sussex | NJ | 2026-05-08 00:15 | ASOS | 46 | 37 | 71 | 29.82 | 0 | N | |||
| Sussex | NJ | 2026-05-08 13:53 | ASOS | 53 | 37 | 54 | 29.91 | 7 | ||||
| Sussex | NJ | 2026-05-08 16:35 | ASOS | 57 | 34 | 41 | 29.87 | 5 | W | |||
| Sussex | NJ | 2026-05-08 16:30 | ASOS | 57 | 35 | 44 | 29.87 | 10 | WNW | |||
| Sussex | NJ | 2026-05-08 16:25 | ASOS | 57 | 35 | 44 | 29.88 | 6 | W | |||
| Sussex | NJ | 2026-05-08 16:20 | ASOS | 57 | 34 | 41 | 29.87 | 8 | WNW | |||
| Sussex | NJ | 2026-05-08 15:30 | ASOS | 61 | 39 | 45 | 29.88 | 7 | WNW | |||
| Sussex | NJ | 2026-05-08 15:25 | ASOS | 59 | 39 | 48 | 29.89 | 7 | W | |||
| Sussex | NJ | 2026-05-08 15:20 | ASOS | 57 | 39 | 51 | 29.88 | 10 | WNW | |||
| Sussex | NJ | 2026-05-08 15:15 | ASOS | 57 | 39 | 51 | 29.88 | |||||
| Sussex | NJ | 2026-05-08 14:53 | ASOS | 56 | 39 | 53 | 29.89 | 6 | ||||
| Sussex | NJ | 2026-05-08 14:35 | ASOS | 55 | 43 | 62 | 29.89 | 10 | N | |||
| Sussex | NJ | 2026-05-08 14:25 | ASOS | 55 | 43 | 62 | 29.90 | 7 | NNW | |||
| Sussex | NJ | 2026-05-08 14:20 | ASOS | 54 | 43 | 67 | 29.91 | 5 | WNW | |||
| Sussex | NJ | 2026-05-08 14:15 | ASOS | 52 | 39 | 62 | 29.91 | 10 | WNW | |||
| Sussex | NJ | 2026-05-08 13:35 | ASOS | 55 | 34 | 44 | 29.87 | 3 | SW | |||
| Sussex | NJ | 2026-05-08 16:53 | ASOS | 58 | 35 | 42 | 29.87 | 6 | WSW | |||
| Sussex | NJ | 2026-05-08 13:25 | ASOS | 57 | 34 | 41 | 29.88 | 6 | WSW | |||
| Sussex | NJ | 2026-05-08 13:20 | ASOS | 57 | 34 | 41 | 29.88 | 8 | WSW | |||
| Sussex | NJ | 2026-05-08 13:15 | ASOS | 57 | 35 | 44 | 29.88 | 7 | WSW | |||
| Sussex | NJ | 2026-05-08 12:53 | ASOS | 56 | 33 | 42 | 29.88 | 10 | W | |||
| Sussex | NJ | 2026-05-08 12:35 | ASOS | 59 | 34 | 39 | 29.88 | 7 | WSW | |||
| Sussex | NJ | 2026-05-08 12:25 | ASOS | 57 | 34 | 41 | 29.88 | 8 | W | |||
| Sussex | NJ | 2026-05-08 12:15 | ASOS | 57 | 34 | 41 | 29.89 | 8 | SW | |||
| Sussex | NJ | 2026-05-08 12:10 | ASOS | 57 | 34 | 41 | 29.89 | 8 | SW | |||
| Sussex | NJ | 2026-05-08 12:05 | ASOS | 55 | 34 | 44 | 29.89 | 7 | SW | |||
| Sussex | NJ | 2026-05-08 11:53 | ASOS | 55 | 33 | 43 | 29.90 | 7 | ||||
| Sussex | NJ | 2026-05-08 11:25 | ASOS | 57 | 32 | 38 | 29.90 | 12 | SW | |||
| Sussex | NJ | 2026-05-08 11:20 | ASOS | 57 | 34 | 41 | 29.89 | 9 | SW | |||
| Sussex | NJ | 2026-05-08 10:53 | ASOS | 56 | 32 | 40 | 29.90 | 7 | ||||
| Sussex | NJ | 2026-05-08 16:40 | ASOS | 57 | 34 | 41 | 29.87 | 3 | W | |||
| Sussex | NJ | 2026-05-08 17:15 | ASOS | 57 | 35 | 44 | 29.87 | 3 | SW | |||
| Sussex | NJ | 2026-05-08 10:30 | ASOS | 55 | 32 | 41 | 29.90 | 7 | W | |||
| Sussex | NJ | 2026-05-08 20:25 | ASOS | 54 | 39 | 58 | 29.89 | 0 | N | |||
| Sussex | NJ | 2026-05-08 23:35 | ASOS | 50 | 43 | 76 | 29.93 | 0 | N | |||
| Sussex | NJ | 2026-05-08 23:25 | ASOS | 52 | 43 | 71 | 29.93 | 0 | N | |||
| Sussex | NJ | 2026-05-08 23:20 | ASOS | 52 | 43 | 71 | 29.93 | 0 | N | |||
| Sussex | NJ | 2026-05-08 23:15 | ASOS | 52 | 43 | 71 | 29.93 | 0 | N | |||
| Sussex | NJ | 2026-05-08 22:53 | ASOS | 51 | 44 | 77 | 29.93 | 0 | N | |||
| Sussex | NJ | 2026-05-08 22:35 | ASOS | 52 | 45 | 76 | 29.93 | 0 | N | |||
| Sussex | NJ | 2026-05-08 22:25 | ASOS | 52 | 43 | 71 | 29.92 | 0 | N | |||
| Sussex | NJ | 2026-05-08 22:20 | ASOS | 52 | 43 | 71 | 29.92 | 0 | N | |||
| Sussex | NJ | 2026-05-08 21:53 | ASOS | 52 | 44 | 74 | 29.92 | 0 | N | |||
| Sussex | NJ | 2026-05-08 21:35 | ASOS | 52 | 43 | 71 | 29.92 | 0 | N | |||
| Sussex | NJ | 2026-05-08 21:20 | ASOS | 52 | 43 | 71 | 29.91 | 0 | N | |||
| Sussex | NJ | 2026-05-08 21:15 | ASOS | 52 | 45 | 76 | 29.91 | 0 | N | |||
| Sussex | NJ | 2026-05-08 20:53 | ASOS | 53 | 42 | 66 | 29.90 | 0 | N | |||
| Sussex | NJ | 2026-05-08 20:20 | ASOS | 54 | 39 | 58 | 29.89 | 0 | N | |||
| Sussex | NJ | 2026-05-08 17:20 | ASOS | 57 | 35 | 44 | 29.87 | 3 | W | |||
| Sussex | NJ | 2026-05-08 20:15 | ASOS | 54 | 41 | 62 | 29.89 | 0 | N | |||
| Sussex | NJ | 2026-05-08 19:53 | ASOS | 56 | 39 | 53 | 29.88 | 0 | N | |||
| Sussex | NJ | 2026-05-08 19:25 | ASOS | 57 | 35 | 44 | 29.87 | 0 | N | |||
| Sussex | NJ | 2026-05-08 19:20 | ASOS | 57 | 35 | 44 | 29.87 | 0 | N | |||
| Sussex | NJ | 2026-05-08 19:15 | ASOS | 57 | 35 | 44 | 29.87 | 0 | N | |||
| Sussex | NJ | 2026-05-08 18:53 | ASOS | 58 | 36 | 44 | 29.87 | 3 | SW | |||
| Sussex | NJ | 2026-05-08 18:20 | ASOS | 57 | 35 | 44 | 29.87 | 3 | SSW | |||
| Sussex | NJ | 2026-05-08 18:15 | ASOS | 57 | 35 | 44 | 29.87 | 3 | SW | |||
| Sussex | NJ | 2026-05-08 18:10 | ASOS | 57 | 35 | 44 | 29.87 | 3 | SW | |||
| Sussex | NJ | 2026-05-08 18:05 | ASOS | 57 | 35 | 44 | 29.87 | 0 | N | |||
| Sussex | NJ | 2026-05-08 17:53 | ASOS | 58 | 35 | 42 | 29.87 | 5 | ||||
| Sussex | NJ | 2026-05-08 17:35 | ASOS | 57 | 35 | 44 | 29.87 | 0 | N | |||
| Sussex | NJ | 2026-05-08 17:30 | ASOS | 57 | 34 | 41 | 29.87 | 6 | WNW | |||
| Sussex | NJ | 2026-05-08 10:35 | ASOS | 57 | 34 | 41 | 29.90 | 6 | WSW | |||
| Sussex | NJ | 2026-05-08 10:25 | ASOS | 55 | 34 | 44 | 29.90 | 6 | W | |||
| Sussex | NJ | 2026-05-08 00:20 | ASOS | 46 | 37 | 71 | 29.82 | 0 | N | |||
| Sussex | NJ | 2026-05-08 02:30 | ASOS | 46 | 37 | 71 | 29.90 | 0 | N | |||
| Sussex | NJ | 2026-05-08 04:40 | ASOS | 43 | 37 | 81 | 29.90 | 3 | SSW | |||
| Sussex | NJ | 2026-05-08 04:35 | ASOS | 43 | 37 | 81 | 29.90 | 0 | N | |||
| Sussex | NJ | 2026-05-08 04:30 | ASOS | 43 | 37 | 81 | 29.90 | 0 | N | |||
| Sussex | NJ | 2026-05-08 04:25 | ASOS | 43 | 37 | 81 | 29.90 | 0 | N | |||
| Sussex | NJ | 2026-05-08 04:20 | ASOS | 43 | 37 | 81 | 29.90 | 0 | N | |||
| Sussex | NJ | 2026-05-08 04:15 | ASOS | 43 | 37 | 81 | 29.90 | 0 | N | |||
| Sussex | NJ | 2026-05-08 03:53 | ASOS | 45 | 39 | 80 | 29.88 | 0 | N | |||
| Sussex | NJ | 2026-05-08 03:35 | ASOS | 46 | 37 | 71 | 29.89 | 0 | N | |||
| Sussex | NJ | 2026-05-08 03:30 | ASOS | 46 | 37 | 71 | 29.89 | 0 | N | |||
| Sussex | NJ | 2026-05-08 03:25 | ASOS | 46 | 37 | 71 | 29.89 | 0 | N | |||
| Sussex | NJ | 2026-05-08 03:20 | ASOS | 46 | 39 | 76 | 29.89 | 0 | N | |||
| Sussex | NJ | 2026-05-08 03:15 | ASOS | 46 | 39 | 76 | 29.89 | 0 | N | |||
| Sussex | NJ | 2026-05-08 02:53 | ASOS | 46 | 39 | 76 | 29.89 | 0 | N | |||
| Sussex | NJ | 2026-05-08 02:25 | ASOS | 46 | 37 | 71 | 29.90 | 0 | N | |||
| Sussex | NJ | 2026-05-08 05:15 | ASOS | 41 | 36 | 81 | 29.91 | 0 | N | |||
| Sussex | NJ | 2026-05-08 02:20 | ASOS | 46 | 37 | 71 | 29.90 | 0 | N | |||
| Sussex | NJ | 2026-05-08 01:53 | ASOS | 47 | 37 | 68 | 29.90 | 0 | N | |||
| Sussex | NJ | 2026-05-08 01:35 | ASOS | 48 | 37 | 66 | 29.90 | 8 | N | |||
| Sussex | NJ | 2026-05-08 01:30 | ASOS | 48 | 35 | 62 | 29.90 | 8 | N | |||
| Sussex | NJ | 2026-05-08 01:25 | ASOS | 48 | 35 | 62 | 29.90 | 8 | NW | |||
| Sussex | NJ | 2026-05-08 01:20 | ASOS | 50 | 35 | 58 | 29.90 | 6 | NW | |||
| Sussex | NJ | 2026-05-08 01:15 | ASOS | 50 | 35 | 58 | 29.90 | 6 | WNW | |||
| Sussex | NJ | 2026-05-08 01:10 | ASOS | 48 | 37 | 66 | 29.89 | 6 | W | |||
| Sussex | NJ | 2026-05-08 01:05 | ASOS | 48 | 37 | 66 | 29.89 | 0 | N | |||
| Sussex | NJ | 2026-05-08 00:53 | ASOS | 47 | 39 | 74 | 29.87 | 5 | WSW | |||
| Sussex | NJ | 2026-05-08 00:35 | ASOS | 46 | 39 | 76 | 29.83 | 0 | N | |||
| Sussex | NJ | 2026-05-08 00:30 | ASOS | 46 | 39 | 76 | 29.83 | 0 | N | |||
| Sussex | NJ | 2026-05-08 00:25 | ASOS | 46 | 39 | 76 | 29.82 | 0 | N | |||
| Sussex | NJ | 2026-05-08 04:53 | ASOS | 42 | 37 | 82 | 29.91 | 0 | N | |||
| Sussex | NJ | 2026-05-08 05:18 | ASOS | 41 | 36 | 82 | 29.91 | 0 | N | |||
| Sussex | NJ | 2026-05-08 10:20 | ASOS | 55 | 34 | 44 | 29.90 | 7 | W | |||
| Sussex | NJ | 2026-05-08 07:30 | ASOS | 45 | 39 | 81 | 29.92 | 3 | SW | |||
| Sussex | NJ | 2026-05-08 09:53 | ASOS | 56 | 35 | 45 | 29.90 | |||||
| Sussex | NJ | 2026-05-08 09:35 | ASOS | 54 | 34 | 47 | 29.92 | 3 | WNW | |||
| Sussex | NJ | 2026-05-08 09:30 | ASOS | 54 | 35 | 50 | 29.92 | 6 | WSW | |||
| Sussex | NJ | 2026-05-08 09:25 | ASOS | 54 | 35 | 50 | 29.92 | 3 | WNW | |||
| Sussex | NJ | 2026-05-08 09:20 | ASOS | 52 | 35 | 54 | 29.92 | 5 | WSW | |||
| Sussex | NJ | 2026-05-08 09:15 | ASOS | 52 | 35 | 54 | 29.92 | 0 | N | |||
| Sussex | NJ | 2026-05-08 08:53 | ASOS | 51 | 36 | 56 | 29.92 | 6 | ||||
| Sussex | NJ | 2026-05-08 08:30 | ASOS | 50 | 37 | 62 | 29.92 | 0 | N | |||
| Sussex | NJ | 2026-05-08 08:25 | ASOS | 50 | 39 | 66 | 29.92 | 3 | SSW | |||
| Sussex | NJ | 2026-05-08 08:20 | ASOS | 48 | 37 | 66 | 29.92 | 5 | SSW | |||
| Sussex | NJ | 2026-05-08 08:15 | ASOS | 48 | 39 | 71 | 29.92 | 5 | S | |||
| Sussex | NJ | 2026-05-08 07:53 | ASOS | 47 | 40 | 76 | 29.93 | 5 | SSW | |||
| Sussex | NJ | 2026-05-08 07:35 | ASOS | 45 | 39 | 81 | 29.93 | 3 | SW | |||
| Sussex | NJ | 2026-05-08 07:25 | ASOS | 45 | 39 | 81 | 29.92 | 5 | SSW | |||
| Sussex | NJ | 2026-05-08 05:20 | ASOS | 41 | 36 | 81 | 29.91 | 0 | N | |||
| Sussex | NJ | 2026-05-08 07:20 | ASOS | 45 | 39 | 81 | 29.92 | 5 | SSW | |||
| Sussex | NJ | 2026-05-08 07:15 | ASOS | 43 | 39 | 87 | 29.93 | 3 | SW | |||
| Sussex | NJ | 2026-05-08 06:53 | ASOS | 42 | 38 | 85 | 29.93 | 3 | SSW | |||
| Sussex | NJ | 2026-05-08 06:40 | ASOS | 41 | 37 | 87 | 29.93 | 3 | SSW | |||
| Sussex | NJ | 2026-05-08 06:35 | ASOS | 41 | 37 | 87 | 29.93 | 0 | N | |||
| Sussex | NJ | 2026-05-08 06:30 | ASOS | 39 | 37 | 93 | 29.93 | 0 | N | |||
| Sussex | NJ | 2026-05-08 06:25 | ASOS | 39 | 37 | 93 | 29.93 | 3 | WSW | |||
| Sussex | NJ | 2026-05-08 06:20 | ASOS | 39 | 37 | 93 | 29.92 | 0 | N | |||
| Sussex | NJ | 2026-05-08 06:15 | ASOS | 39 | 37 | 93 | 29.92 | 0 | N | |||
| Sussex | NJ | 2026-05-08 05:53 | ASOS | 40 | 36 | 86 | 29.92 | 0 | N | |||
| Sussex | NJ | 2026-05-08 05:38 | ASOS | 39 | 35 | 86 | 29.91 | 0 | N | |||
| Sussex | NJ | 2026-05-08 05:36 | ASOS | 40 | 36 | 86 | 29.91 | 0 | N | |||
| Sussex | NJ | 2026-05-08 05:35 | ASOS | 39 | 36 | 87 | 29.91 | 0 | N | |||
| Sussex | NJ | 2026-05-08 05:25 | ASOS | 39 | 36 | 87 | 29.91 | 0 | N | |||
| Sussex | NJ | 2026-05-08 23:53 | ASOS | 50 | 43 | 77 | 29.93 | 3 | W |
data collection created in 0.018603086471558 (queried in 0.003866) rendered in: 0.00023293495178223

